sim
Sign-in with your pilot id or email,
or register
Callsign
Passwort

Schedule Details

Flight Number: OEO6213
Departure: Fuerteventura Airport (GCFV) at 16:15
Arrival: Zurich Airport (LSZH) at 20:30

Weather Information
Getting current METAR information for GCFV 192130Z 35016KT 9999 FEW040 SCT048 18/12 Q1018
Getting current METAR information for LSZH 192150Z VRB01KT CAVOK 11/06 Q1027 NOSIG

Schedule Frequency

Route Map